createdAt,value
2023-01-30T00:00:01.103Z,-2.54
2023-01-30T00:01:01.210Z,-2.51
2023-01-30T00:02:00.371Z,-2.48
2023-01-30T00:03:00.429Z,-2.47
2023-01-30T00:04:00.529Z,-2.45
2023-01-30T00:05:00.692Z,-2.43
2023-01-30T00:06:00.722Z,-2.41
2023-01-30T00:07:00.836Z,-2.37
2023-01-30T00:08:00.921Z,-2.37
2023-01-30T00:09:01.077Z,-2.34
2023-01-30T00:10:01.143Z,-2.33
2023-01-30T00:12:00.333Z,-2.3
2023-01-30T00:13:00.442Z,-2.29
2023-01-30T00:14:00.573Z,-2.27
2023-01-30T00:15:00.675Z,-2.26
2023-01-30T00:16:00.790Z,-2.26
2023-01-30T00:17:00.849Z,-2.26
2023-01-30T00:18:00.954Z,-2.22
2023-01-30T00:19:01.076Z,-2.21
2023-01-30T00:20:01.165Z,-2.2
2023-01-30T00:21:02.786Z,-2.19
2023-01-30T00:22:00.372Z,-2.19
2023-01-30T00:23:01.305Z,-2.18
2023-01-30T00:24:00.590Z,-2.18
2023-01-30T00:25:00.858Z,-2.19
2023-01-30T00:26:00.797Z,-2.2
2023-01-30T00:27:00.897Z,-2.19
2023-01-30T00:28:01.028Z,-2.17
2023-01-30T00:29:01.133Z,-2.15
2023-01-30T00:30:03.389Z,-2.14
2023-01-30T00:31:00.445Z,-2.14
2023-01-30T00:32:00.511Z,-2.13
2023-01-30T00:33:00.553Z,-2.14
2023-01-30T00:34:00.643Z,-2.13
2023-01-30T00:35:00.743Z,-2.13
2023-01-30T00:36:00.867Z,-2.12
2023-01-30T00:37:08.203Z,-2.1
2023-01-30T00:38:01.063Z,-2.09
2023-01-30T00:39:01.207Z,-2.08
2023-01-30T00:40:00.283Z,-2.07
2023-01-30T00:41:00.396Z,-2.08
2023-01-30T00:42:00.491Z,-2.08
2023-01-30T00:43:00.591Z,-2.08
2023-01-30T00:44:00.705Z,-2.07
2023-01-30T00:45:00.808Z,-2.03
2023-01-30T00:46:00.975Z,-2.03
2023-01-30T00:47:01.002Z,-2.02
2023-01-30T00:48:01.120Z,-2.02
2023-01-30T00:49:01.212Z,-2.02
2023-01-30T00:50:00.344Z,-2.02
2023-01-30T00:51:00.429Z,-2.02
2023-01-30T00:52:00.528Z,-2.02
2023-01-30T00:53:00.623Z,-2.02
2023-01-30T00:54:00.718Z,-2.02
2023-01-30T00:55:00.833Z,-2.02
2023-01-30T00:56:00.943Z,-2.02
2023-01-30T00:57:01.049Z,-2.01
2023-01-30T00:58:01.132Z,-2.01
2023-01-30T00:59:00.232Z,-2.01
2023-01-30T01:00:00.354Z,-2.01
2023-01-30T01:01:00.478Z,-1.98
2023-01-30T01:02:00.636Z,-1.95
2023-01-30T01:03:00.677Z,-1.94
2023-01-30T01:04:00.758Z,-1.92
2023-01-30T01:05:00.852Z,-1.92
2023-01-30T01:06:00.989Z,-1.9
2023-01-30T01:07:01.065Z,-1.88
2023-01-30T01:08:01.160Z,-1.87
2023-01-30T01:09:00.274Z,-1.84
2023-01-30T01:10:00.373Z,-1.83
2023-01-30T01:11:00.504Z,-1.84
2023-01-30T01:12:00.619Z,-1.85
2023-01-30T01:13:00.727Z,-1.84
2023-01-30T01:14:00.851Z,-1.84
2023-01-30T01:15:00.921Z,-1.84
2023-01-30T01:16:01.057Z,-1.82
2023-01-30T01:17:01.129Z,-1.82
2023-01-30T01:18:00.238Z,-1.8
2023-01-30T01:19:00.342Z,-1.79
2023-01-30T01:20:00.470Z,-1.77
2023-01-30T01:21:00.559Z,-1.77
2023-01-30T01:22:00.647Z,-1.75
2023-01-30T01:23:00.755Z,-1.74
2023-01-30T01:24:00.886Z,-1.71
2023-01-30T01:25:00.968Z,-1.69
2023-01-30T01:26:01.096Z,-1.68
2023-01-30T01:27:01.191Z,-1.67
2023-01-30T01:28:00.297Z,-1.65
2023-01-30T01:29:00.402Z,-1.64
2023-01-30T01:30:02.246Z,-1.64
2023-01-30T01:31:00.644Z,-1.63
2023-01-30T01:32:00.763Z,-1.63
2023-01-30T01:33:00.814Z,-1.63
2023-01-30T01:34:00.920Z,-1.63
2023-01-30T01:35:01.026Z,-1.61
2023-01-30T01:36:03.629Z,-1.61
2023-01-30T01:37:00.242Z,-1.59
2023-01-30T01:38:00.341Z,-1.59
2023-01-30T01:39:00.457Z,-1.59
2023-01-30T01:40:00.584Z,-1.58
2023-01-30T01:41:00.672Z,-1.56
2023-01-30T01:42:00.796Z,-1.54
2023-01-30T01:43:00.864Z,-1.53
2023-01-30T01:44:00.981Z,-1.52
2023-01-30T01:45:01.077Z,-1.52
2023-01-30T01:46:01.247Z,-1.5
2023-01-30T01:47:00.318Z,-1.49
2023-01-30T01:48:00.397Z,-1.48
2023-01-30T01:49:00.493Z,-1.47
2023-01-30T01:50:00.602Z,-1.47
2023-01-30T01:51:00.716Z,-1.48
2023-01-30T01:52:00.829Z,-1.48
2023-01-30T01:53:00.930Z,-1.49
2023-01-30T01:54:01.042Z,-1.49
2023-01-30T01:55:01.152Z,-1.5
2023-01-30T01:56:00.234Z,-1.52
2023-01-30T01:57:00.343Z,-1.52
2023-01-30T01:58:00.443Z,-1.53
2023-01-30T01:59:00.556Z,-1.54
2023-01-30T02:00:00.672Z,-1.56
2023-01-30T02:01:00.755Z,-1.56
2023-01-30T02:02:00.916Z,-1.58
2023-01-30T02:03:00.956Z,-1.59
2023-01-30T02:04:01.086Z,-1.59
2023-01-30T02:05:01.181Z,-1.57
2023-01-30T02:06:00.275Z,-1.55
2023-01-30T02:07:00.394Z,-1.57
2023-01-30T02:08:00.484Z,-1.56
2023-01-30T02:09:00.620Z,-1.56
2023-01-30T02:10:00.703Z,-1.54
2023-01-30T02:11:00.801Z,-1.5
2023-01-30T02:12:00.903Z,-1.49
2023-01-30T02:13:01.000Z,-1.48
2023-01-30T02:14:01.135Z,-1.44
2023-01-30T02:15:01.223Z,-1.41
2023-01-30T02:16:00.323Z,-1.36
2023-01-30T02:17:00.432Z,-1.32
2023-01-30T02:18:00.529Z,-1.3
2023-01-30T02:19:00.654Z,-1.28
2023-01-30T02:20:00.744Z,-1.28
2023-01-30T02:21:00.868Z,-1.27
2023-01-30T02:22:00.948Z,-1.26
2023-01-30T02:23:01.053Z,-1.25
2023-01-30T02:24:01.151Z,-1.26
2023-01-30T02:25:00.259Z,-1.26
2023-01-30T02:26:00.390Z,-1.26
2023-01-30T02:27:00.477Z,-1.26
2023-01-30T02:28:00.579Z,-1.26
2023-01-30T02:29:00.692Z,-1.26
2023-01-30T02:30:00.792Z,-1.26
2023-01-30T02:31:01.046Z,-1.26
2023-01-30T02:32:00.998Z,-1.27
2023-01-30T02:33:01.114Z,-1.28
2023-01-30T02:34:01.201Z,-1.29
2023-01-30T02:35:00.304Z,-1.28
2023-01-30T02:36:00.428Z,-1.29
2023-01-30T02:37:00.543Z,-1.3
2023-01-30T02:38:00.663Z,-1.31
2023-01-30T02:39:00.744Z,-1.31
2023-01-30T02:40:00.845Z,-1.32
2023-01-30T02:41:00.946Z,-1.31
2023-01-30T02:42:01.058Z,-1.31
2023-01-30T02:43:01.179Z,-1.32
2023-01-30T02:44:00.255Z,-1.31
2023-01-30T02:45:00.364Z,-1.3
2023-01-30T02:46:00.514Z,-1.28
2023-01-30T02:47:00.626Z,-1.26
2023-01-30T02:48:00.722Z,-1.21
2023-01-30T02:49:00.788Z,-1.18
2023-01-30T02:50:00.908Z,-1.16
2023-01-30T02:51:01.022Z,-1.16
2023-01-30T02:52:01.115Z,-1.16
2023-01-30T02:53:01.233Z,-1.16
2023-01-30T02:54:00.331Z,-1.16
2023-01-30T02:55:00.434Z,-1.16
2023-01-30T02:56:00.540Z,-1.16
2023-01-30T02:57:00.656Z,-1.15
2023-01-30T02:58:00.747Z,-1.15
2023-01-30T02:59:00.887Z,-1.15
2023-01-30T03:00:00.959Z,-1.16
2023-01-30T03:01:01.120Z,-1.17
2023-01-30T03:02:01.169Z,-1.16
2023-01-30T03:03:00.286Z,-1.15
2023-01-30T03:04:00.412Z,-1.14
2023-01-30T03:05:00.495Z,-1.13
2023-01-30T03:06:00.602Z,-1.13
2023-01-30T03:07:00.701Z,-1.15
2023-01-30T03:08:00.817Z,-1.16
2023-01-30T03:09:00.938Z,-1.16
2023-01-30T03:10:01.065Z,-1.15
2023-01-30T03:11:01.158Z,-1.15
2023-01-30T03:12:00.265Z,-1.14
2023-01-30T03:13:00.362Z,-1.14
2023-01-30T03:14:00.471Z,-1.14
2023-01-30T03:15:00.615Z,-1.12
2023-01-30T03:16:00.677Z,-1.06
2023-01-30T03:17:00.794Z,-1.04
2023-01-30T03:18:00.892Z,-1.03
2023-01-30T03:19:00.995Z,-1.03
2023-01-30T03:20:01.117Z,-1.04
2023-01-30T03:21:01.197Z,-1.04
2023-01-30T03:22:00.307Z,-1.05
2023-01-30T03:23:00.402Z,-1.06
2023-01-30T03:24:00.503Z,-1.05
2023-01-30T03:25:00.628Z,-1.02
2023-01-30T03:26:00.705Z,-1.01
2023-01-30T03:27:00.818Z,-1
2023-01-30T03:28:00.922Z,-0.99
2023-01-30T03:29:01.036Z,-1
2023-01-30T03:30:01.147Z,-1.01
2023-01-30T03:31:00.321Z,-1
2023-01-30T03:32:00.380Z,-0.99
2023-01-30T03:33:00.453Z,-1
2023-01-30T03:34:00.557Z,-1.03
2023-01-30T03:35:00.675Z,-1.02
2023-01-30T03:36:00.786Z,-1.01
2023-01-30T03:37:00.886Z,-1.01
2023-01-30T03:38:00.980Z,-1.02
2023-01-30T03:39:01.104Z,-1.02
2023-01-30T03:40:01.204Z,-1.03
2023-01-30T03:41:00.315Z,-1.02
2023-01-30T03:42:00.417Z,-1.01
2023-01-30T03:43:00.522Z,-1.01
2023-01-30T03:44:00.645Z,-1.01
2023-01-30T03:45:00.759Z,-1.01
2023-01-30T03:46:00.900Z,-0.99
2023-01-30T03:47:00.998Z,-0.98
2023-01-30T03:48:01.074Z,-0.98
2023-01-30T03:49:01.173Z,-0.97
2023-01-30T03:50:00.280Z,-0.96
2023-01-30T03:51:00.384Z,-0.96
2023-01-30T03:52:00.493Z,-0.96
2023-01-30T03:53:00.602Z,-0.94
2023-01-30T03:54:00.713Z,-0.94
2023-01-30T03:55:00.815Z,-0.94
2023-01-30T03:56:00.908Z,-0.94
2023-01-30T03:57:01.030Z,-0.94
2023-01-30T03:58:01.125Z,-0.93
2023-01-30T03:59:01.226Z,-0.93
2023-01-30T04:00:00.333Z,-0.93
2023-01-30T04:01:00.528Z,-0.94
2023-01-30T04:02:00.554Z,-0.95
2023-01-30T04:03:00.645Z,-0.98
2023-01-30T04:04:00.748Z,-0.99
2023-01-30T04:05:00.875Z,-1
2023-01-30T04:06:00.964Z,-1.01
2023-01-30T04:07:01.073Z,-1
2023-01-30T04:08:01.170Z,-1
2023-01-30T04:09:00.260Z,-0.99
2023-01-30T04:10:00.373Z,-1
2023-01-30T04:11:00.466Z,-1
2023-01-30T04:12:00.590Z,-1.02
2023-01-30T04:13:00.679Z,-1.01
2023-01-30T04:14:00.789Z,-1
2023-01-30T04:15:00.900Z,-0.97
2023-01-30T04:16:00.988Z,-0.95
2023-01-30T04:17:01.101Z,-0.95
2023-01-30T04:18:01.197Z,-0.94
2023-01-30T04:19:00.287Z,-0.94
2023-01-30T04:20:00.393Z,-0.93
2023-01-30T04:21:00.496Z,-0.9
2023-01-30T04:22:00.621Z,-0.89
2023-01-30T04:23:00.747Z,-0.89
2023-01-30T04:24:00.831Z,-0.89
2023-01-30T04:25:00.942Z,-0.88
2023-01-30T04:26:01.046Z,-0.88
2023-01-30T04:27:01.170Z,-0.87
2023-01-30T04:28:00.277Z,-0.83
2023-01-30T04:29:00.395Z,-0.8
2023-01-30T04:30:00.466Z,-0.77
2023-01-30T04:31:00.661Z,-0.76
2023-01-30T04:32:00.690Z,-0.76
2023-01-30T04:33:00.823Z,-0.74
2023-01-30T04:34:00.898Z,-0.74
2023-01-30T04:35:01.003Z,-0.73
2023-01-30T04:36:01.112Z,-0.68
2023-01-30T04:37:01.214Z,-0.65
2023-01-30T04:38:00.341Z,-0.62
2023-01-30T04:39:00.431Z,-0.59
2023-01-30T04:40:00.532Z,-0.58
2023-01-30T04:41:00.631Z,-0.55
2023-01-30T04:42:00.733Z,-0.54
2023-01-30T04:43:00.843Z,-0.53
2023-01-30T04:44:00.972Z,-0.53
2023-01-30T04:45:01.061Z,-0.51
2023-01-30T04:46:01.155Z,-0.49
2023-01-30T04:47:00.262Z,-0.47
2023-01-30T04:48:00.373Z,-0.45
2023-01-30T04:49:00.502Z,-0.44
2023-01-30T04:50:00.585Z,-0.42
2023-01-30T04:51:00.690Z,-0.42
2023-01-30T04:52:00.780Z,-0.4
2023-01-30T04:53:00.898Z,-0.4
2023-01-30T04:54:01.015Z,-0.39
2023-01-30T04:55:01.136Z,-0.39
2023-01-30T04:56:01.209Z,-0.4
2023-01-30T04:57:00.340Z,-0.4
2023-01-30T04:58:00.428Z,-0.39
2023-01-30T04:59:00.520Z,-0.38
2023-01-30T05:00:00.648Z,-0.39
2023-01-30T05:01:00.863Z,-0.39
2023-01-30T05:02:00.893Z,-0.39
2023-01-30T05:03:00.970Z,-0.39
2023-01-30T05:04:01.049Z,-0.37
2023-01-30T05:05:01.193Z,-0.37
2023-01-30T05:06:00.267Z,-0.36
2023-01-30T05:07:00.379Z,-0.36
2023-01-30T05:08:00.491Z,-0.34
2023-01-30T05:09:00.606Z,-0.34
2023-01-30T05:10:00.740Z,-0.32
2023-01-30T05:11:00.817Z,-0.31
2023-01-30T05:12:00.906Z,-0.29
2023-01-30T05:13:01.019Z,-0.27
2023-01-30T05:14:01.121Z,-0.26
2023-01-30T05:15:01.220Z,-0.26
2023-01-30T05:16:00.338Z,-0.26
2023-01-30T05:17:00.469Z,-0.26
2023-01-30T05:18:00.543Z,-0.26
2023-01-30T05:19:00.637Z,-0.25
2023-01-30T05:20:00.753Z,-0.23
2023-01-30T05:21:00.845Z,-0.21
2023-01-30T05:22:00.956Z,-0.2
2023-01-30T05:23:01.060Z,-0.2
2023-01-30T05:24:01.154Z,-0.2
2023-01-30T05:25:00.263Z,-0.2
2023-01-30T05:26:00.392Z,-0.2
2023-01-30T05:27:00.470Z,-0.2
2023-01-30T05:28:00.561Z,-0.2
2023-01-30T05:29:00.670Z,-0.2
2023-01-30T05:30:00.811Z,-0.2
2023-01-30T05:31:00.965Z,-0.2
2023-01-30T05:32:01.009Z,-0.2
2023-01-30T05:33:01.095Z,-0.2
2023-01-30T05:34:01.194Z,-0.2
2023-01-30T05:35:00.296Z,-0.16
2023-01-30T05:36:00.446Z,-0.15
2023-01-30T05:37:00.524Z,-0.16
2023-01-30T05:38:00.626Z,-0.17
2023-01-30T05:39:00.734Z,-0.17
2023-01-30T05:40:00.840Z,-0.2
2023-01-30T05:41:00.950Z,-0.2
2023-01-30T05:42:01.053Z,-0.2
2023-01-30T05:43:01.147Z,-0.2
2023-01-30T05:44:00.248Z,-0.21
2023-01-30T05:45:00.361Z,-0.22
2023-01-30T05:46:00.466Z,-0.24
2023-01-30T05:47:00.568Z,-0.24
2023-01-30T05:48:01.519Z,-0.25
2023-01-30T05:49:00.785Z,-0.25
2023-01-30T05:50:00.879Z,-0.24
2023-01-30T05:51:00.982Z,-0.23
2023-01-30T05:52:01.113Z,-0.22
2023-01-30T05:53:01.222Z,-0.2
2023-01-30T05:54:00.288Z,-0.2
2023-01-30T05:55:00.390Z,-0.2
2023-01-30T05:56:00.496Z,-0.17
2023-01-30T05:57:00.606Z,-0.17
2023-01-30T05:58:00.723Z,-0.19
2023-01-30T05:59:00.843Z,-0.17
2023-01-30T06:00:00.932Z,-0.19
2023-01-30T06:01:01.033Z,-0.17
2023-01-30T06:02:01.141Z,-0.17
2023-01-30T06:03:00.295Z,-0.19
2023-01-30T06:04:00.408Z,-0.17
2023-01-30T06:05:00.445Z,-0.15
2023-01-30T06:06:00.576Z,-0.14
2023-01-30T06:07:00.668Z,-0.14
2023-01-30T06:08:00.776Z,-0.14
2023-01-30T06:09:00.881Z,-0.16
2023-01-30T06:10:00.977Z,-0.15
2023-01-30T06:11:01.083Z,-0.14
2023-01-30T06:12:01.192Z,-0.11
2023-01-30T06:13:00.295Z,-0.09
2023-01-30T06:14:00.409Z,-0.08
2023-01-30T06:15:00.491Z,-0.08
2023-01-30T06:16:00.625Z,-0.07
2023-01-30T06:17:00.735Z,-0.05
2023-01-30T06:18:00.811Z,-0.03
2023-01-30T06:19:00.916Z,-0.02
2023-01-30T06:20:01.017Z,-0.01
2023-01-30T06:21:01.120Z,0
2023-01-30T06:22:01.240Z,0.01
2023-01-30T06:23:00.324Z,0.02
2023-01-30T06:24:00.437Z,0.02
2023-01-30T06:25:00.541Z,0.08
2023-01-30T06:26:03.266Z,0.09
2023-01-30T06:27:00.770Z,0.12
2023-01-30T06:28:00.898Z,0.15
2023-01-30T06:29:00.977Z,0.17
2023-01-30T06:30:01.088Z,0.18
2023-01-30T06:31:01.353Z,0.19
2023-01-30T06:32:00.341Z,0.19
2023-01-30T06:33:00.438Z,0.2
2023-01-30T06:34:00.520Z,0.21
2023-01-30T06:35:00.633Z,0.22
2023-01-30T06:36:00.725Z,0.21
2023-01-30T06:37:00.830Z,0.22
2023-01-30T06:38:00.945Z,0.23
2023-01-30T06:39:01.053Z,0.29
2023-01-30T06:40:01.146Z,0.35
2023-01-30T06:41:00.256Z,0.38
2023-01-30T06:42:00.374Z,0.42
2023-01-30T06:43:00.463Z,0.46
2023-01-30T06:44:00.565Z,0.47
2023-01-30T06:45:00.714Z,0.48
2023-01-30T06:46:00.852Z,0.51
2023-01-30T06:47:00.914Z,0.51
2023-01-30T06:48:01.008Z,0.53
2023-01-30T06:49:01.103Z,0.53
2023-01-30T06:50:01.203Z,0.57
2023-01-30T06:51:00.323Z,0.59
2023-01-30T06:52:00.418Z,0.61
2023-01-30T06:53:00.531Z,0.63
2023-01-30T06:54:00.629Z,0.64
2023-01-30T06:55:00.727Z,0.64
2023-01-30T06:56:00.830Z,0.65
2023-01-30T06:57:00.947Z,0.65
2023-01-30T06:58:01.069Z,0.67
2023-01-30T06:59:01.170Z,0.68
2023-01-30T07:00:00.266Z,0.69
2023-01-30T07:01:00.373Z,0.71
2023-01-30T07:02:00.492Z,0.72
2023-01-30T07:03:00.577Z,0.72
2023-01-30T07:04:00.762Z,0.72
2023-01-30T07:05:00.770Z,0.72
2023-01-30T07:06:00.886Z,0.73
2023-01-30T07:07:00.978Z,0.76
2023-01-30T07:08:01.093Z,0.76
2023-01-30T07:09:01.225Z,0.77
2023-01-30T07:10:07.878Z,0.76
2023-01-30T07:11:00.409Z,0.77
2023-01-30T07:12:00.510Z,0.8
2023-01-30T07:13:00.616Z,0.81
2023-01-30T07:14:00.730Z,0.82
2023-01-30T07:15:00.831Z,0.82
2023-01-30T07:16:00.926Z,0.82
2023-01-30T07:17:01.083Z,0.82
2023-01-30T07:18:01.141Z,0.83
2023-01-30T07:19:00.256Z,0.83
2023-01-30T07:20:00.410Z,0.84
2023-01-30T07:21:00.465Z,0.86
2023-01-30T07:22:02.431Z,0.87
2023-01-30T07:23:00.672Z,0.88
2023-01-30T07:24:00.768Z,0.88
2023-01-30T07:25:00.911Z,0.87
2023-01-30T07:26:00.980Z,0.88
2023-01-30T07:27:01.101Z,0.88
2023-01-30T07:28:01.226Z,0.88
2023-01-30T07:29:00.310Z,0.88
2023-01-30T07:30:00.416Z,0.89
2023-01-30T07:31:00.595Z,0.89
2023-01-30T07:32:00.693Z,0.89
2023-01-30T07:33:00.728Z,0.9
2023-01-30T07:34:00.823Z,0.9
2023-01-30T07:35:00.927Z,0.93
2023-01-30T07:36:01.043Z,0.94
2023-01-30T07:37:01.133Z,0.95
2023-01-30T07:38:01.229Z,0.96
2023-01-30T07:39:00.350Z,0.98
2023-01-30T07:40:00.443Z,0.99
2023-01-30T07:41:00.562Z,1.01
2023-01-30T07:42:00.656Z,1.01
2023-01-30T07:43:00.760Z,1.01
2023-01-30T07:44:00.860Z,0.98
2023-01-30T07:45:00.967Z,0.99
2023-01-30T07:46:01.082Z,1.02
2023-01-30T07:47:01.327Z,1.03
2023-01-30T07:48:00.284Z,1.03
2023-01-30T07:49:00.397Z,1.04
2023-01-30T07:50:00.496Z,1.04
2023-01-30T07:51:00.605Z,1.05
2023-01-30T07:52:00.701Z,1.06
2023-01-30T07:53:00.810Z,1.07
2023-01-30T07:54:00.920Z,1.08
2023-01-30T07:55:01.684Z,1.08
2023-01-30T07:56:01.133Z,1.08
2023-01-30T07:57:00.249Z,1.08
2023-01-30T07:58:00.352Z,1.08
2023-01-30T07:59:00.445Z,1.08
2023-01-30T08:00:00.636Z,1.09
2023-01-30T08:01:00.761Z,1.1
2023-01-30T08:02:00.767Z,1.11
2023-01-30T08:03:00.881Z,1.11
2023-01-30T08:04:01.007Z,1.1
2023-01-30T08:05:01.148Z,1.08
2023-01-30T08:06:01.208Z,1.09
2023-01-30T08:07:00.319Z,1.09
2023-01-30T08:08:00.424Z,1.1
2023-01-30T08:09:00.519Z,1.11
2023-01-30T08:10:00.643Z,1.14
2023-01-30T08:11:00.739Z,1.14
2023-01-30T08:12:00.848Z,1.14
2023-01-30T08:13:00.952Z,1.18
2023-01-30T08:14:01.069Z,1.21
2023-01-30T08:15:01.166Z,1.24
2023-01-30T08:16:00.255Z,1.27
2023-01-30T08:17:00.374Z,1.31
2023-01-30T08:18:00.474Z,1.32
2023-01-30T08:19:00.577Z,1.34
2023-01-30T08:20:00.658Z,1.34
2023-01-30T08:21:00.785Z,1.33
2023-01-30T08:22:00.887Z,1.33
2023-01-30T08:23:00.991Z,1.33
2023-01-30T08:24:01.422Z,1.32
2023-01-30T08:25:01.209Z,1.31
2023-01-30T08:26:00.300Z,1.31
2023-01-30T08:27:00.398Z,1.32
2023-01-30T08:28:00.563Z,1.33
2023-01-30T08:29:00.663Z,1.34
2023-01-30T08:30:00.740Z,1.34
2023-01-30T08:31:00.960Z,1.35
2023-01-30T08:32:00.964Z,1.34
2023-01-30T08:33:01.060Z,1.36
2023-01-30T08:34:01.167Z,1.36
2023-01-30T08:35:00.238Z,1.36
2023-01-30T08:36:00.362Z,1.37
2023-01-30T08:37:00.451Z,1.38
2023-01-30T08:38:00.554Z,1.39
2023-01-30T08:39:00.670Z,1.4
2023-01-30T08:40:00.756Z,1.38
2023-01-30T08:41:00.886Z,1.4
2023-01-30T08:42:00.973Z,1.4
2023-01-30T08:43:01.086Z,1.4
2023-01-30T08:44:01.218Z,1.39
2023-01-30T08:45:00.305Z,1.36
2023-01-30T08:46:00.414Z,1.35
2023-01-30T08:47:00.514Z,1.35
2023-01-30T08:48:00.613Z,1.33
2023-01-30T08:49:00.748Z,1.33
2023-01-30T08:50:00.853Z,1.34
2023-01-30T08:51:00.946Z,1.34
2023-01-30T08:52:01.064Z,1.33
2023-01-30T08:53:01.172Z,1.33
2023-01-30T08:54:00.265Z,1.32
2023-01-30T08:55:00.411Z,1.32
2023-01-30T08:56:00.491Z,1.33
2023-01-30T08:57:00.626Z,1.33
2023-01-30T08:58:00.757Z,1.34
2023-01-30T08:59:00.830Z,1.36
2023-01-30T09:00:00.946Z,1.35
2023-01-30T09:01:01.102Z,1.37
2023-01-30T09:02:01.138Z,1.37
2023-01-30T09:03:00.245Z,1.4
2023-01-30T09:04:00.361Z,1.45
2023-01-30T09:05:00.456Z,1.45
2023-01-30T09:06:00.585Z,1.46
2023-01-30T09:07:00.660Z,1.46
2023-01-30T09:08:00.767Z,1.47
2023-01-30T09:09:00.880Z,1.5
2023-01-30T09:10:00.988Z,1.52
2023-01-30T09:11:01.095Z,1.52
2023-01-30T09:12:01.214Z,1.53
2023-01-30T09:13:00.288Z,1.57
2023-01-30T09:14:00.395Z,1.58
2023-01-30T09:15:00.507Z,1.61
2023-01-30T09:16:00.601Z,1.62
2023-01-30T09:17:00.817Z,1.61
2023-01-30T09:18:00.839Z,1.57
2023-01-30T09:19:00.923Z,1.56
2023-01-30T09:20:01.049Z,1.54
2023-01-30T09:21:01.136Z,1.52
2023-01-30T09:22:00.239Z,1.52
2023-01-30T09:23:00.371Z,1.54
2023-01-30T09:24:00.453Z,1.58
2023-01-30T09:25:00.559Z,1.61
2023-01-30T09:26:00.675Z,1.62
2023-01-30T09:27:00.808Z,1.65
2023-01-30T09:28:00.903Z,1.71
2023-01-30T09:29:00.980Z,1.76
2023-01-30T09:30:01.100Z,1.8
2023-01-30T09:31:01.306Z,1.82
2023-01-30T09:32:00.297Z,1.85
2023-01-30T09:33:00.556Z,1.87
2023-01-30T09:34:00.508Z,1.91
2023-01-30T09:35:00.634Z,1.95
2023-01-30T09:36:00.715Z,2
2023-01-30T09:37:01.533Z,2
2023-01-30T09:38:00.935Z,2
2023-01-30T09:39:01.027Z,2
2023-01-30T09:40:01.130Z,2.02
2023-01-30T09:41:01.233Z,2.05
2023-01-30T09:42:00.363Z,2.03
2023-01-30T09:43:00.480Z,2.03
2023-01-30T09:44:00.554Z,2.02
2023-01-30T09:45:00.676Z,2
2023-01-30T09:46:00.805Z,1.99
2023-01-30T09:47:00.872Z,1.98
2023-01-30T09:48:01.746Z,1.97
2023-01-30T09:49:01.094Z,1.92
2023-01-30T09:50:01.213Z,1.87
2023-01-30T09:51:00.420Z,1.85
2023-01-30T09:52:00.382Z,1.84
2023-01-30T09:53:00.499Z,1.82
2023-01-30T09:54:01.208Z,1.79
2023-01-30T09:55:00.721Z,1.77
2023-01-30T09:56:00.803Z,1.75
2023-01-30T09:57:00.958Z,1.72
2023-01-30T09:58:01.079Z,1.71
2023-01-30T09:59:01.127Z,1.7
2023-01-30T10:00:01.227Z,1.7
2023-01-30T10:01:00.332Z,1.69
2023-01-30T10:02:00.413Z,1.69
2023-01-30T10:03:00.517Z,1.67
2023-01-30T10:04:00.636Z,1.67
2023-01-30T10:05:02.214Z,1.67
2023-01-30T10:06:00.870Z,1.65
2023-01-30T10:07:00.951Z,1.65
2023-01-30T10:08:01.099Z,1.64
2023-01-30T10:09:01.156Z,1.62
2023-01-30T10:10:00.281Z,1.58
2023-01-30T10:11:09.645Z,1.56
2023-01-30T10:12:00.468Z,1.55
2023-01-30T10:13:00.578Z,1.54
2023-01-30T10:14:00.732Z,1.56
2023-01-30T10:15:00.810Z,1.58
2023-01-30T10:16:00.969Z,1.63
2023-01-30T10:17:01.000Z,1.66
2023-01-30T10:18:01.105Z,1.71
2023-01-30T10:19:01.215Z,1.76
2023-01-30T10:20:00.329Z,1.79
2023-01-30T10:21:00.442Z,1.82
2023-01-30T10:22:00.563Z,1.85
2023-01-30T10:23:00.642Z,1.88
2023-01-30T10:24:00.754Z,1.91
2023-01-30T10:25:00.848Z,1.92
2023-01-30T10:26:00.976Z,1.97
2023-01-30T10:27:03.023Z,1.99
2023-01-30T10:28:01.184Z,2.01
2023-01-30T10:29:07.279Z,2.05
2023-01-30T10:30:00.391Z,2.1
2023-01-30T10:31:00.588Z,2.15
2023-01-30T10:32:00.605Z,2.17
2023-01-30T10:33:00.723Z,2.2
2023-01-30T10:34:00.811Z,2.21
2023-01-30T10:35:00.914Z,2.23
2023-01-30T10:36:01.022Z,2.25
2023-01-30T10:37:01.126Z,2.26
2023-01-30T10:39:00.362Z,2.32
2023-01-30T10:40:00.440Z,2.32
2023-01-30T10:41:00.549Z,2.32
2023-01-30T10:42:00.649Z,2.31
2023-01-30T10:43:00.760Z,2.32
2023-01-30T10:44:00.883Z,2.32
2023-01-30T10:45:00.963Z,2.31
2023-01-30T10:46:01.089Z,2.32
2023-01-30T10:47:01.182Z,2.35
2023-01-30T10:48:00.281Z,2.36
2023-01-30T10:49:00.419Z,2.34
2023-01-30T10:50:00.502Z,2.36
2023-01-30T10:51:00.594Z,2.42
2023-01-30T10:52:00.720Z,2.46
2023-01-30T10:53:00.800Z,2.49
2023-01-30T10:54:00.961Z,2.52
2023-01-30T10:55:01.052Z,2.53
2023-01-30T10:56:01.147Z,2.53
2023-01-30T10:57:00.232Z,2.56
2023-01-30T10:58:00.350Z,2.56
2023-01-30T10:59:00.445Z,2.56
2023-01-30T11:00:00.567Z,2.55
2023-01-30T11:01:00.669Z,2.55
2023-01-30T11:02:00.761Z,2.53
2023-01-30T11:03:00.940Z,2.49
2023-01-30T11:04:01.004Z,2.45
2023-01-30T11:05:01.266Z,2.41
2023-01-30T11:06:01.178Z,2.37
2023-01-30T11:07:00.288Z,2.3
2023-01-30T11:08:00.406Z,2.26
2023-01-30T11:09:00.501Z,2.25
2023-01-30T11:10:00.639Z,2.24
2023-01-30T11:11:00.715Z,2.23
2023-01-30T11:12:00.825Z,2.22
2023-01-30T11:13:00.951Z,2.22
2023-01-30T11:14:01.074Z,2.24
2023-01-30T11:15:01.133Z,2.25
2023-01-30T11:16:00.300Z,2.25
2023-01-30T11:17:00.365Z,2.25
2023-01-30T11:18:27.235Z,2.24
2023-01-30T11:19:21.200Z,2.21
2023-01-30T11:20:00.660Z,2.2
2023-01-30T11:21:00.785Z,2.17
2023-01-30T11:22:00.887Z,2.15
2023-01-30T11:23:00.985Z,2.14
2023-01-30T11:24:01.099Z,2.12
2023-01-30T11:25:01.223Z,2.11
2023-01-30T11:26:10.954Z,2.1
2023-01-30T11:27:00.460Z,2.07
2023-01-30T11:28:00.520Z,2.06
2023-01-30T11:29:00.617Z,2.03
2023-01-30T11:30:00.725Z,2.02
2023-01-30T11:31:00.920Z,2.03
2023-01-30T11:32:01.032Z,2.06
2023-01-30T11:33:01.046Z,2.07
2023-01-30T11:34:01.152Z,2.11
2023-01-30T11:35:00.254Z,2.11
2023-01-30T11:36:00.351Z,2.11
2023-01-30T11:37:00.447Z,2.1
2023-01-30T11:38:00.562Z,2.11
2023-01-30T11:39:00.668Z,2.14
2023-01-30T11:40:00.790Z,2.15
2023-01-30T11:41:00.879Z,2.17
2023-01-30T11:42:00.980Z,2.21
2023-01-30T11:43:01.082Z,2.23
2023-01-30T11:44:01.187Z,2.25
2023-01-30T11:45:16.308Z,2.29
2023-01-30T11:46:00.455Z,2.34
2023-01-30T11:47:00.518Z,2.37
2023-01-30T11:48:03.777Z,2.41
2023-01-30T11:49:31.879Z,2.45
2023-01-30T11:50:04.713Z,2.49
2023-01-30T11:51:00.940Z,2.53
2023-01-30T11:52:01.059Z,2.59
2023-01-30T11:53:01.150Z,2.65
2023-01-30T11:54:00.237Z,2.73
2023-01-30T11:55:00.349Z,2.78
2023-01-30T11:56:05.724Z,2.81
2023-01-30T11:57:00.538Z,2.85
2023-01-30T11:58:00.634Z,2.89
2023-01-30T11:59:00.757Z,2.93
2023-01-30T12:00:00.880Z,2.97
2023-01-30T12:01:00.975Z,3
2023-01-30T12:02:01.148Z,3.02
2023-01-30T12:03:01.229Z,3.05
2023-01-30T12:04:00.288Z,3.09
2023-01-30T12:05:00.388Z,3.1
2023-01-30T12:06:00.483Z,3.1
2023-01-30T12:07:00.620Z,3.08
2023-01-30T12:08:00.733Z,3.1
2023-01-30T12:09:00.837Z,3.09
2023-01-30T12:10:00.904Z,3.08
2023-01-30T12:11:01.028Z,3.09
2023-01-30T12:12:01.133Z,3.08
2023-01-30T12:13:01.221Z,3.06
2023-01-30T12:14:00.317Z,3.04
2023-01-30T12:15:00.432Z,3.01
2023-01-30T12:16:00.651Z,2.97
2023-01-30T12:17:00.666Z,2.93
2023-01-30T12:18:00.735Z,2.89
2023-01-30T12:19:00.857Z,2.85
2023-01-30T12:20:00.949Z,2.84
2023-01-30T12:21:01.062Z,2.81
2023-01-30T12:22:01.141Z,2.79
2023-01-30T12:23:00.257Z,2.79
2023-01-30T12:24:00.384Z,2.78
2023-01-30T12:25:00.503Z,2.79
2023-01-30T12:26:00.576Z,2.79
2023-01-30T12:27:00.709Z,2.82
2023-01-30T12:28:00.835Z,2.87
2023-01-30T12:29:00.912Z,2.93
2023-01-30T12:30:00.976Z,2.97
2023-01-30T12:31:01.153Z,3.05
2023-01-30T12:32:01.227Z,3.15
2023-01-30T12:34:00.444Z,3.25
2023-01-30T12:35:00.501Z,3.23
2023-01-30T12:36:00.619Z,3.2
2023-01-30T12:37:00.726Z,3.17
2023-01-30T12:38:00.827Z,3.13
2023-01-30T12:39:00.927Z,3.09
2023-01-30T12:40:01.037Z,3.05
2023-01-30T12:41:01.144Z,3.02
2023-01-30T12:42:00.252Z,2.99
2023-01-30T12:43:00.349Z,2.96
2023-01-30T12:44:00.446Z,2.93
2023-01-30T12:45:00.534Z,2.9
2023-01-30T12:46:00.739Z,2.87
2023-01-30T12:47:00.787Z,2.85
2023-01-30T12:48:00.876Z,2.84
2023-01-30T12:49:11.257Z,2.84
2023-01-30T12:50:01.081Z,2.85
2023-01-30T12:51:01.182Z,2.87
2023-01-30T12:52:00.279Z,2.86
2023-01-30T12:53:00.388Z,2.88
2023-01-30T12:54:00.497Z,2.9
2023-01-30T12:55:00.590Z,2.91
2023-01-30T12:56:00.699Z,2.89
2023-01-30T12:57:00.825Z,2.86
2023-01-30T12:58:00.920Z,2.85
2023-01-30T12:59:01.018Z,2.82
2023-01-30T13:00:01.127Z,2.79
2023-01-30T13:02:00.347Z,2.78
2023-01-30T13:03:00.549Z,2.75
2023-01-30T13:04:00.550Z,2.75
2023-01-30T13:05:04.641Z,2.76
2023-01-30T13:06:00.758Z,2.78
2023-01-30T13:07:00.882Z,2.78
2023-01-30T13:08:00.968Z,2.79
2023-01-30T13:09:01.079Z,2.78
2023-01-30T13:10:01.193Z,2.81
2023-01-30T13:11:00.291Z,2.86
2023-01-30T13:12:00.420Z,2.88
2023-01-30T13:13:00.489Z,2.89